Weather at Fort Lauderdale Hollywood International Airport

Public forecast

Using degrees Fahrenheit for public forecast. Weather courtesy of forecast.io.

Current aviation weather report (METAR) for Fort Lauderdale Hollywood International Airport

2022/11/30 10:53 (retrieved 1 hour ago)

KFLL 301053Z 11009KT 10SM SCT024 BKN034 26/22 A3005 RMK AO2 SLP174 T02560217

Aviation forecast (TAF) for Fort Lauderdale Hollywood International Airport

2022/11/30 09:07 Ammendment (retrieved 3 hours ago)

TAF AMD KFLL 300858Z 3009/0112 08010KT P6SM FEW025 SCT040 FM301400 13009KT P6SM SCT040 BKN100 FM302100 10008KT P6SM VCTS SCT035CB BKN050 BKN100 FM010200 07006KT P6SM SCT050 SCT100 BKN250